createdAt,value
2022-09-23T00:01:07.451Z,101244.94
2022-09-23T00:03:35.242Z,101248.50
2022-09-23T00:06:04.642Z,101238.28
2022-09-23T00:08:31.545Z,101235.53
2022-09-23T00:11:05.344Z,101236.53
2022-09-23T00:13:33.439Z,101241.63
2022-09-23T00:16:08.881Z,101235.03
2022-09-23T00:18:35.497Z,101228.81
2022-09-23T00:21:06.534Z,101233.00
2022-09-23T00:23:34.223Z,101243.19
2022-09-23T00:26:03.932Z,101236.00
2022-09-23T00:28:32.289Z,101226.47
2022-09-23T00:31:07.842Z,101226.28
2022-09-23T00:33:34.672Z,101227.03
2022-09-23T00:36:03.936Z,101230.56
2022-09-23T00:38:31.088Z,101227.06
2022-09-23T00:40:58.448Z,101214.75
2022-09-23T00:43:47.241Z,101223.47
2022-09-23T00:46:29.369Z,101211.53
2022-09-23T00:49:01.348Z,101223.69
2022-09-23T00:51:34.730Z,101217.66
2022-09-23T00:54:02.689Z,101206.84
2022-09-23T00:56:31.307Z,101214.53
2022-09-23T00:58:58.051Z,101223.31
2022-09-23T01:01:25.245Z,101215.69
2022-09-23T01:03:54.372Z,101214.03
2022-09-23T01:06:21.429Z,101205.38
2022-09-23T01:08:48.675Z,101207.81
2022-09-23T01:11:38.050Z,101197.44
2022-09-23T01:14:32.569Z,101202.66
2022-09-23T01:17:07.497Z,101195.56
2022-09-23T01:19:57.874Z,101190.47
2022-09-23T01:22:44.419Z,101192.13
2022-09-23T01:25:57.218Z,101181.75
2022-09-23T01:29:20.245Z,101180.53
2022-09-23T01:32:03.289Z,101168.72
2022-09-23T01:34:49.122Z,101174.94
2022-09-23T01:37:30.963Z,101173.84
2022-09-23T01:40:11.410Z,101174.75
2022-09-23T01:42:44.887Z,101177.25
2022-09-23T01:45:19.886Z,101171.84
2022-09-23T01:48:10.429Z,101173.72
2022-09-23T01:50:56.224Z,101171.19
2022-09-23T01:53:41.058Z,101172.66
2022-09-23T01:56:23.432Z,101177.88
2022-09-23T01:58:57.232Z,101176.22
2022-09-23T02:01:40.451Z,101177.88
2022-09-23T02:04:13.073Z,101170.78
2022-09-23T02:06:46.676Z,101174.88
2022-09-23T02:09:16.798Z,101172.16
2022-09-23T02:11:48.131Z,101166.03
2022-09-23T02:15:03.069Z,101161.81
2022-09-23T02:17:59.478Z,101162.75
2022-09-23T02:20:30.160Z,101164.69
2022-09-23T02:23:03.637Z,101161.91
2022-09-23T02:25:39.412Z,101163.53
2022-09-23T02:28:19.017Z,101153.22
2022-09-23T02:30:49.060Z,101152.53
2022-09-23T02:33:32.064Z,101154.34
2022-09-23T02:36:12.478Z,101152.63
2022-09-23T02:38:52.438Z,101155.09
2022-09-23T02:41:50.263Z,101150.91
2022-09-23T02:44:19.821Z,101151.00
2022-09-23T02:46:46.958Z,101143.91
2022-09-23T02:49:17.474Z,101147.25
2022-09-23T02:51:45.453Z,101146.59
2022-09-23T02:54:16.892Z,101140.47
2022-09-23T02:56:43.704Z,101133.53
2022-09-23T02:59:12.778Z,101141.59
2022-09-23T03:02:07.846Z,101138.22
2022-09-23T03:05:03.818Z,101136.59
2022-09-23T03:07:40.803Z,101138.97
2022-09-23T03:10:19.489Z,101136.41
2022-09-23T03:13:14.711Z,101127.06
2022-09-23T03:15:59.575Z,101118.22
2022-09-23T03:18:40.328Z,101120.75
2022-09-23T03:21:14.835Z,101114.94
2022-09-23T03:23:43.367Z,101119.75
2022-09-23T03:26:19.197Z,101112.56
2022-09-23T03:28:46.697Z,101110.84
2022-09-23T03:31:15.271Z,101108.25
2022-09-23T03:33:47.195Z,101113.53
2022-09-23T03:36:37.321Z,101101.31
2022-09-23T03:39:12.499Z,101106.56
2022-09-23T03:41:50.872Z,101104.06
2022-09-23T03:44:19.572Z,101098.66
2022-09-23T03:46:49.794Z,101104.66
2022-09-23T03:49:19.900Z,101100.34
2022-09-23T03:51:46.484Z,101090.69
2022-09-23T03:54:13.046Z,101090.63
2022-09-23T03:56:39.544Z,101091.63
2022-09-23T03:59:06.133Z,101095.28
2022-09-23T04:01:32.778Z,101085.78
2022-09-23T04:04:00.060Z,101090.16
2022-09-23T04:06:26.680Z,101077.16
2022-09-23T04:08:53.876Z,101084.09
2022-09-23T04:11:20.441Z,101079.75
2022-09-23T04:13:47.097Z,101077.09
2022-09-23T04:16:13.697Z,101069.31
2022-09-23T04:18:40.267Z,101070.91
2022-09-23T04:21:06.819Z,101076.97
2022-09-23T04:23:33.423Z,101069.16
2022-09-23T04:26:19.757Z,101070.16
2022-09-23T04:28:53.667Z,101070.06
2022-09-23T04:31:26.558Z,101064.88
2022-09-23T04:33:53.741Z,101064.94
2022-09-23T04:36:20.776Z,101057.03
2022-09-23T04:38:48.730Z,101062.28
2022-09-23T04:41:16.585Z,101063.13
2022-09-23T04:43:44.014Z,101056.13
2022-09-23T04:46:12.958Z,101060.41
2022-09-23T04:48:44.226Z,101055.94
2022-09-23T04:51:13.502Z,101058.47
2022-09-23T04:53:42.141Z,101055.81
2022-09-23T04:56:11.709Z,101053.19
2022-09-23T04:58:38.912Z,101052.97
2022-09-23T05:01:25.241Z,101049.59
2022-09-23T05:03:56.188Z,101041.41
2022-09-23T05:06:22.826Z,101052.53
2022-09-23T05:08:52.405Z,101049.47
2022-09-23T05:11:19.473Z,101055.22
2022-09-23T05:13:51.047Z,101049.22
2022-09-23T05:16:18.843Z,101052.66
2022-09-23T05:18:46.697Z,101052.66
2022-09-23T05:21:16.023Z,101060.53
2022-09-23T05:23:46.859Z,101055.34
2022-09-23T05:26:14.135Z,101047.56
2022-09-23T05:28:40.809Z,101055.97
2022-09-23T05:31:20.039Z,101045.63
2022-09-23T05:33:51.852Z,101044.75
2022-09-23T05:36:20.510Z,101039.56
2022-09-23T05:38:49.317Z,101043.88
2022-09-23T05:41:17.183Z,101030.00
2022-09-23T05:43:43.963Z,101033.03
2022-09-23T05:46:13.156Z,101035.69
2022-09-23T05:48:41.139Z,101031.38
2022-09-23T05:51:12.805Z,101027.94
2022-09-23T05:53:40.943Z,101034.88
2022-09-23T05:56:08.090Z,101034.66
2022-09-23T05:58:34.802Z,101030.22
2022-09-23T06:01:01.537Z,101034.66
2022-09-23T06:03:28.341Z,101035.56
2022-09-23T06:05:55.945Z,101041.41
2022-09-23T06:08:23.579Z,101039.94
2022-09-23T06:10:54.459Z,101041.66
2022-09-23T06:13:21.530Z,101039.47
2022-09-23T06:15:48.162Z,101039.88
2022-09-23T06:18:14.807Z,101036.78
2022-09-23T06:20:41.340Z,101045.66
2022-09-23T06:23:10.699Z,101041.38
2022-09-23T06:25:38.520Z,101045.84
2022-09-23T06:28:07.431Z,101046.78
2022-09-23T06:30:34.789Z,101050.38
2022-09-23T06:33:01.915Z,101052.34
2022-09-23T06:35:28.921Z,101044.56
2022-09-23T06:37:55.855Z,101045.44
2022-09-23T06:40:22.764Z,101041.63
2022-09-23T06:42:56.609Z,101050.53
2022-09-23T06:45:23.498Z,101046.94
2022-09-23T06:47:56.141Z,101052.09
2022-09-23T06:50:26.344Z,101037.94
2022-09-23T06:52:56.785Z,101030.56
2022-09-23T06:55:24.849Z,101027.47
2022-09-23T06:57:51.406Z,101036.78
2022-09-23T07:00:19.136Z,101037.75
2022-09-23T07:02:45.844Z,101040.63
2022-09-23T07:05:13.465Z,101047.66
2022-09-23T07:07:40.019Z,101046.28
2022-09-23T07:10:07.329Z,101045.53
2022-09-23T07:12:34.050Z,101036.84
2022-09-23T07:15:00.756Z,101038.66
2022-09-23T07:17:27.696Z,101049.31
2022-09-23T07:19:58.274Z,101041.53
2022-09-23T07:22:26.427Z,101046.72
2022-09-23T07:24:56.333Z,101051.28
2022-09-23T07:27:27.595Z,101052.28
2022-09-23T07:29:55.015Z,101053.41
2022-09-23T07:32:23.023Z,101048.25
2022-09-23T07:34:49.796Z,101046.53
2022-09-23T07:37:17.619Z,101049.41
2022-09-23T07:39:44.653Z,101037.59
2022-09-23T07:42:13.287Z,101039.63
2022-09-23T07:44:43.986Z,101041.53
2022-09-23T07:47:11.134Z,101039.94
2022-09-23T07:49:38.398Z,101034.41
2022-09-23T07:52:05.247Z,101037.44
2022-09-23T07:54:32.156Z,101038.34
2022-09-23T07:56:59.129Z,101035.09
2022-09-23T07:59:27.574Z,101030.06
2022-09-23T08:01:56.691Z,101039.53
2022-09-23T08:04:27.666Z,101035.59
2022-09-23T08:06:56.678Z,101033.97
2022-09-23T08:09:26.820Z,101035.56
2022-09-23T08:11:53.531Z,101034.91
2022-09-23T08:14:22.194Z,101036.09
2022-09-23T08:16:48.958Z,101038.00
2022-09-23T08:19:16.363Z,101036.28
2022-09-23T08:21:43.660Z,101023.31
2022-09-23T08:24:16.631Z,101036.28
2022-09-23T08:26:44.628Z,101033.00
2022-09-23T08:29:16.430Z,101034.13
2022-09-23T08:31:43.079Z,101029.75
2022-09-23T08:34:10.171Z,101034.03
2022-09-23T08:36:37.045Z,101036.06
2022-09-23T08:39:04.649Z,101028.19
2022-09-23T08:41:40.046Z,101031.88
2022-09-23T08:44:27.212Z,101028.44
2022-09-23T08:47:00.021Z,101033.72
2022-09-23T08:49:35.358Z,101029.38
2022-09-23T08:52:14.273Z,101031.16
2022-09-23T08:54:41.617Z,101027.63
2022-09-23T08:57:21.205Z,101026.75
2022-09-23T08:59:49.304Z,101031.13
2022-09-23T09:02:20.743Z,101030.31
2022-09-23T09:04:55.013Z,101025.91
2022-09-23T09:07:37.670Z,101025.03
2022-09-23T09:10:07.191Z,101022.34
2022-09-23T09:12:50.901Z,101023.25
2022-09-23T09:15:25.431Z,101022.34
2022-09-23T09:18:07.812Z,101019.72
2022-09-23T09:20:39.213Z,101015.34
2022-09-23T09:23:11.700Z,101011.81
2022-09-23T09:25:59.388Z,101009.13
2022-09-23T09:28:42.327Z,101007.38
2022-09-23T09:31:12.032Z,101014.41
2022-09-23T09:33:47.371Z,101009.16
2022-09-23T09:36:46.009Z,101002.97
2022-09-23T09:39:14.975Z,100996.78
2022-09-23T09:41:49.624Z,101000.22
2022-09-23T09:44:40.692Z,100994.16
2022-09-23T09:47:37.514Z,100998.53
2022-09-23T09:50:08.895Z,101001.78
2022-09-23T09:52:39.110Z,100989.63
2022-09-23T09:55:11.930Z,100994.88
2022-09-23T09:57:44.813Z,100986.91
2022-09-23T10:00:27.553Z,100989.38
2022-09-23T10:02:59.290Z,100988.59
2022-09-23T10:05:46.802Z,100985.94
2022-09-23T10:08:34.405Z,100978.06
2022-09-23T10:11:03.747Z,100978.78
2022-09-23T10:13:31.669Z,100972.72
2022-09-23T10:16:02.020Z,100976.16
2022-09-23T10:18:37.628Z,100971.75
2022-09-23T10:21:16.300Z,100976.75
2022-09-23T10:23:48.505Z,100967.97
2022-09-23T10:26:18.508Z,100974.78
2022-09-23T10:28:52.355Z,100976.47
2022-09-23T10:31:32.474Z,100975.47
2022-09-23T10:34:03.492Z,100973.91
2022-09-23T10:36:32.840Z,100972.69
2022-09-23T10:39:21.222Z,100956.78
2022-09-23T10:42:22.377Z,100965.25
2022-09-23T10:45:18.996Z,100963.25
2022-09-23T10:48:03.231Z,100961.41
2022-09-23T10:50:42.025Z,100960.31
2022-09-23T10:53:15.195Z,100958.69
2022-09-23T10:56:09.199Z,100964.69
2022-09-23T10:58:48.392Z,100958.41
2022-09-23T11:01:30.986Z,100953.97
2022-09-23T11:04:36.725Z,100952.94
2022-09-23T11:07:22.847Z,100952.91
2022-09-23T11:09:52.477Z,100942.53
2022-09-23T11:12:35.404Z,100944.88
2022-09-23T11:15:20.730Z,100945.03
2022-09-23T11:18:12.155Z,100940.34
2022-09-23T11:20:47.777Z,100932.56
2022-09-23T11:23:35.553Z,100926.97
2022-09-23T11:26:17.748Z,100915.69
2022-09-23T11:29:09.006Z,100920.22
2022-09-23T11:31:37.769Z,100923.06
2022-09-23T11:34:16.292Z,100925.56
2022-09-23T11:36:50.882Z,100917.31
2022-09-23T11:39:21.985Z,100901.72
2022-09-23T11:41:52.180Z,100905.16
2022-09-23T11:44:33.478Z,100929.28
2022-09-23T11:47:07.577Z,100911.94
2022-09-23T11:49:43.109Z,100912.00
2022-09-23T11:52:20.476Z,100910.34
2022-09-23T11:54:55.833Z,100904.97
2022-09-23T11:57:43.582Z,100907.56
2022-09-23T12:00:19.138Z,100911.09
2022-09-23T12:03:02.743Z,100897.72
2022-09-23T12:05:39.273Z,100902.03
2022-09-23T12:08:26.699Z,100897.69
2022-09-23T12:10:56.118Z,100899.53
2022-09-23T12:13:43.039Z,100903.81
2022-09-23T12:16:34.688Z,100898.09
2022-09-23T12:19:24.640Z,100886.59
2022-09-23T12:22:04.723Z,100876.19
2022-09-23T12:24:31.502Z,100884.56
2022-09-23T12:27:04.903Z,100887.31
2022-09-23T12:29:33.093Z,100868.25
2022-09-23T12:31:59.857Z,100879.88
2022-09-23T12:34:37.724Z,100874.25
2022-09-23T12:37:05.577Z,100884.84
2022-09-23T12:39:38.614Z,100873.84
2022-09-23T12:42:17.868Z,100884.16
2022-09-23T12:44:47.369Z,100860.28
2022-09-23T12:47:25.812Z,100871.78
2022-09-23T12:49:56.509Z,100868.47
2022-09-23T12:52:32.133Z,100873.47
2022-09-23T12:55:22.100Z,100864.03
2022-09-23T12:57:49.075Z,100864.09
2022-09-23T13:00:27.468Z,100864.19
2022-09-23T13:03:18.180Z,100858.78
2022-09-23T13:06:19.295Z,100851.56
2022-09-23T13:08:47.487Z,100857.06
2022-09-23T13:11:21.830Z,100854.50
2022-09-23T13:13:49.901Z,100839.59
2022-09-23T13:16:30.976Z,100850.34
2022-09-23T13:19:20.654Z,100841.44
2022-09-23T13:21:47.232Z,100841.50
2022-09-23T13:24:14.395Z,100837.88
2022-09-23T13:26:45.485Z,100839.47
2022-09-23T13:29:23.743Z,100836.06
2022-09-23T13:31:50.855Z,100823.50
2022-09-23T13:34:22.953Z,100829.50
2022-09-23T13:36:49.508Z,100825.13
2022-09-23T13:39:22.369Z,100819.13
2022-09-23T13:41:51.810Z,100818.56
2022-09-23T13:44:20.051Z,100821.28
2022-09-23T13:46:50.506Z,100818.56
2022-09-23T13:49:25.918Z,100822.69
2022-09-23T13:51:56.133Z,100798.81
2022-09-23T13:54:36.262Z,100811.00
2022-09-23T13:57:03.658Z,100810.53
2022-09-23T13:59:38.472Z,100817.63
2022-09-23T14:02:10.956Z,100813.94
2022-09-23T14:04:37.680Z,100807.06
2022-09-23T14:07:06.749Z,100807.19
2022-09-23T14:09:38.153Z,100807.06
2022-09-23T14:12:06.477Z,100801.44
2022-09-23T14:14:37.101Z,100791.09
2022-09-23T14:17:06.306Z,100794.63
2022-09-23T14:19:34.887Z,100802.41
2022-09-23T14:22:01.627Z,100786.38
2022-09-23T14:24:34.050Z,100784.44
2022-09-23T14:27:06.617Z,100783.56
2022-09-23T14:29:36.801Z,100785.59
2022-09-23T14:32:07.404Z,100782.94
2022-09-23T14:35:04.545Z,100780.16
2022-09-23T14:37:58.638Z,100766.63
2022-09-23T14:41:15.109Z,100778.81
2022-09-23T14:43:59.832Z,100782.19
2022-09-23T14:46:37.795Z,100773.41
2022-09-23T14:49:05.569Z,100776.03
2022-09-23T14:51:50.448Z,100776.53
2022-09-23T14:54:44.065Z,100767.06
2022-09-23T14:57:22.534Z,100770.47
2022-09-23T14:59:53.493Z,100776.00
2022-09-23T15:02:35.099Z,100768.09
2022-09-23T15:05:16.009Z,100772.50
2022-09-23T15:07:55.416Z,100758.47
2022-09-23T15:10:42.118Z,100755.78
2022-09-23T15:13:19.695Z,100757.53
2022-09-23T15:15:46.671Z,100751.59
2022-09-23T15:18:21.405Z,100757.84
2022-09-23T15:20:54.088Z,100755.09
2022-09-23T15:23:45.633Z,100745.38
2022-09-23T15:26:22.571Z,100751.66
2022-09-23T15:28:50.633Z,100746.53
2022-09-23T15:31:21.690Z,100740.88
2022-09-23T15:33:49.580Z,100738.19
2022-09-23T15:36:18.865Z,100737.28
2022-09-23T15:38:46.372Z,100740.81
2022-09-23T15:41:17.303Z,100738.03
2022-09-23T15:43:44.577Z,100737.09
2022-09-23T15:46:19.343Z,100739.84
2022-09-23T15:48:58.933Z,100746.72
2022-09-23T15:51:26.795Z,100744.19
2022-09-23T15:53:55.234Z,100745.19
2022-09-23T15:56:23.011Z,100748.63
2022-09-23T15:58:50.063Z,100744.34
2022-09-23T16:01:30.551Z,100746.16
2022-09-23T16:04:01.242Z,100740.94
2022-09-23T16:06:28.204Z,100734.00
2022-09-23T16:08:55.652Z,100733.13
2022-09-23T16:11:27.908Z,100726.19
2022-09-23T16:13:54.729Z,100728.81
2022-09-23T16:16:21.392Z,100730.50
2022-09-23T16:18:50.068Z,100727.00
2022-09-23T16:21:18.936Z,100731.38
2022-09-23T16:23:47.689Z,100727.97
2022-09-23T16:26:18.788Z,100733.22
2022-09-23T16:28:46.815Z,100735.03
2022-09-23T16:31:17.168Z,100733.38
2022-09-23T16:33:44.849Z,100722.94
2022-09-23T16:36:21.863Z,100722.88
2022-09-23T16:38:48.921Z,100734.50
2022-09-23T16:41:15.451Z,100724.03
2022-09-23T16:43:42.335Z,100728.44
2022-09-23T16:46:12.147Z,100722.38
2022-09-23T16:48:45.002Z,100734.75
2022-09-23T16:51:23.007Z,100731.25
2022-09-23T16:53:50.959Z,100741.00
2022-09-23T16:56:24.365Z,100734.09
2022-09-23T16:58:55.094Z,100735.94
2022-09-23T17:01:46.298Z,100737.75
2022-09-23T17:04:14.379Z,100733.53
2022-09-23T17:06:51.649Z,100740.53
2022-09-23T17:09:20.714Z,100728.44
2022-09-23T17:11:52.976Z,100735.50
2022-09-23T17:14:19.547Z,100732.06
2022-09-23T17:16:46.105Z,100741.81
2022-09-23T17:19:12.728Z,100739.22
2022-09-23T17:21:39.626Z,100735.81
2022-09-23T17:24:06.824Z,100751.66
2022-09-23T17:26:34.127Z,100743.81
2022-09-23T17:29:01.997Z,100747.34
2022-09-23T17:31:28.915Z,100746.59
2022-09-23T17:33:55.581Z,100742.25
2022-09-23T17:36:22.235Z,100741.53
2022-09-23T17:38:53.262Z,100747.69
2022-09-23T17:41:20.467Z,100741.56
2022-09-23T17:43:47.449Z,100733.84
2022-09-23T17:46:17.957Z,100739.19
2022-09-23T17:48:45.615Z,100730.47
2022-09-23T17:51:17.859Z,100734.81
2022-09-23T17:53:46.848Z,100736.63
2022-09-23T17:56:16.042Z,100744.56
2022-09-23T17:58:44.101Z,100745.50
2022-09-23T18:01:16.291Z,100728.06
2022-09-23T18:03:43.538Z,100740.34
2022-09-23T18:06:14.616Z,100733.34
2022-09-23T18:08:43.014Z,100740.44
2022-09-23T18:11:25.654Z,100732.63
2022-09-23T18:13:53.365Z,100733.56
2022-09-23T18:16:22.124Z,100730.97
2022-09-23T18:19:10.019Z,100732.75
2022-09-23T18:21:40.105Z,100730.19
2022-09-23T18:24:31.256Z,100728.50
2022-09-23T18:26:57.285Z,100731.13
2022-09-23T18:29:23.765Z,100728.59
2022-09-23T18:31:51.045Z,100721.66
2022-09-23T18:34:17.937Z,100726.91
2022-09-23T18:36:44.950Z,100720.03
2022-09-23T18:39:12.169Z,100730.47
2022-09-23T18:41:38.765Z,100726.97
2022-09-23T18:44:05.492Z,100724.41
2022-09-23T18:46:32.446Z,100716.66
2022-09-23T18:49:18.450Z,100712.28
2022-09-23T18:51:54.742Z,100714.84
2022-09-23T18:54:22.984Z,100713.25
2022-09-23T18:56:52.385Z,100712.41
2022-09-23T18:59:20.903Z,100713.31
2022-09-23T19:01:49.654Z,100709.81
2022-09-23T19:04:19.274Z,100702.91
2022-09-23T19:06:45.971Z,100708.16
2022-09-23T19:09:13.090Z,100695.13
2022-09-23T19:11:39.707Z,100707.31
2022-09-23T19:14:10.777Z,100709.91
2022-09-23T19:16:38.555Z,100709.91
2022-09-23T19:19:05.913Z,100712.63
2022-09-23T19:21:32.936Z,100716.16
2022-09-23T19:24:05.744Z,100711.84
2022-09-23T19:26:38.490Z,100715.31
2022-09-23T19:29:08.022Z,100713.59
2022-09-23T19:31:38.596Z,100714.53
2022-09-23T19:34:12.726Z,100717.13
2022-09-23T19:36:42.561Z,100716.25
2022-09-23T19:39:17.391Z,100715.38
2022-09-23T19:41:44.723Z,100724.19
2022-09-23T19:44:12.046Z,100712.81
2022-09-23T19:46:44.291Z,100725.03
2022-09-23T19:49:11.844Z,100715.41
2022-09-23T19:51:38.987Z,100714.50
2022-09-23T19:54:07.263Z,100712.72
2022-09-23T19:56:34.273Z,100716.22
2022-09-23T19:59:02.931Z,100711.91
2022-09-23T20:01:31.915Z,100722.41
2022-09-23T20:03:59.239Z,100712.81
2022-09-23T20:06:30.183Z,100720.66
2022-09-23T20:08:59.442Z,100711.06
2022-09-23T20:11:28.618Z,100715.44
2022-09-23T20:14:02.238Z,100712.91
2022-09-23T20:16:35.019Z,100703.22
2022-09-23T20:19:01.875Z,100713.81
2022-09-23T20:21:29.575Z,100708.56
2022-09-23T20:23:57.261Z,100704.19
2022-09-23T20:26:42.605Z,100715.59
2022-09-23T20:29:10.685Z,100706.91
2022-09-23T20:31:37.533Z,100711.25
2022-09-23T20:34:06.972Z,100693.88
2022-09-23T20:36:35.054Z,100708.72
2022-09-23T20:39:05.790Z,100705.25
2022-09-23T20:41:36.678Z,100708.75
2022-09-23T20:44:06.177Z,100705.25
2022-09-23T20:46:33.087Z,100701.75
2022-09-23T20:48:59.780Z,100699.13
2022-09-23T20:51:26.347Z,100697.38
2022-09-23T20:53:53.155Z,100697.38
2022-09-23T20:56:23.259Z,100693.91
2022-09-23T20:58:52.540Z,100687.81
2022-09-23T21:01:19.372Z,100686.09
2022-09-23T21:03:48.434Z,100689.59
2022-09-23T21:06:18.634Z,100695.69
2022-09-23T21:08:45.397Z,100695.69
2022-09-23T21:11:14.999Z,100700.00
2022-09-23T21:13:49.152Z,100693.88
2022-09-23T21:16:17.187Z,100687.84
2022-09-23T21:18:45.067Z,100698.38
2022-09-23T21:21:14.052Z,100695.75
2022-09-23T21:23:41.887Z,100690.53
2022-09-23T21:26:13.898Z,100686.16
2022-09-23T21:28:42.940Z,100696.59
2022-09-23T21:31:33.871Z,100685.28
2022-09-23T21:34:02.703Z,100693.09
2022-09-23T21:36:34.618Z,100686.97
2022-09-23T21:39:04.342Z,100687.84
2022-09-23T21:41:31.766Z,100681.78
2022-09-23T21:44:00.261Z,100678.25
2022-09-23T21:46:28.309Z,100680.91
2022-09-23T21:48:57.482Z,100684.41
2022-09-23T21:51:25.582Z,100679.22
2022-09-23T21:53:54.586Z,100687.97
2022-09-23T21:56:29.244Z,100684.50
2022-09-23T21:58:57.818Z,100684.50
2022-09-23T22:01:26.718Z,100682.75
2022-09-23T22:03:58.689Z,100684.50
2022-09-23T22:06:27.585Z,100694.09
2022-09-23T22:08:59.778Z,100689.75
2022-09-23T22:11:47.654Z,100692.41
2022-09-23T22:14:15.809Z,100687.13
2022-09-23T22:16:42.800Z,100686.25
2022-09-23T22:19:10.773Z,100689.75
2022-09-23T22:21:39.079Z,100689.75
2022-09-23T22:24:09.559Z,100686.28
2022-09-23T22:26:39.501Z,100682.81
2022-09-23T22:29:27.385Z,100674.97
2022-09-23T22:32:12.793Z,100672.41
2022-09-23T22:34:50.586Z,100669.78
2022-09-23T22:37:20.581Z,100674.13
2022-09-23T22:39:47.179Z,100674.13
2022-09-23T22:42:14.200Z,100668.91
2022-09-23T22:44:40.850Z,100668.91
2022-09-23T22:47:09.195Z,100663.69
2022-09-23T22:49:35.879Z,100660.19
2022-09-23T22:52:04.001Z,100665.41
2022-09-23T22:54:33.926Z,100662.81
2022-09-23T22:57:04.108Z,100666.28
2022-09-23T22:59:30.907Z,100661.94
2022-09-23T23:01:59.868Z,100661.94
2022-09-23T23:04:26.988Z,100646.25
2022-09-23T23:06:53.726Z,100648.88
2022-09-23T23:09:20.330Z,100658.44
2022-09-23T23:11:47.128Z,100646.28
2022-09-23T23:14:16.806Z,100653.19
2022-09-23T23:16:46.089Z,100651.50
2022-09-23T23:19:16.401Z,100647.16
2022-09-23T23:21:44.534Z,100634.97
2022-09-23T23:24:16.651Z,100651.50
2022-09-23T23:26:43.916Z,100645.41
2022-09-23T23:29:12.158Z,100634.06
2022-09-23T23:31:39.389Z,100641.91
2022-09-23T23:34:08.345Z,100634.94
2022-09-23T23:36:34.975Z,100637.56
2022-09-23T23:39:01.925Z,100636.66
2022-09-23T23:41:28.823Z,100633.22
2022-09-23T23:43:58.367Z,100633.22
2022-09-23T23:46:26.353Z,100632.34
2022-09-23T23:48:54.206Z,100633.22
2022-09-23T23:51:21.465Z,100628.88
2022-09-23T23:53:48.236Z,100627.16
2022-09-23T23:56:18.376Z,100621.94
2022-09-23T23:58:45.470Z,100623.72
